Country
Station

 

Weather  for  Vidsel  -  Sweden    Sweden

  
11 °C (52 °F)
    
 
 

Current METAR for Vidsel is :

ESPE 201950Z AUTO 11003KT 080V140 9999 -SHRA FEW040/// OVC066/// 11/11 Q1008

 

This is a report for Vidsel - Sweden.
 
The report was made 33 minutes ago, at 19:50 UTC .
The wind was blowing at a speed of 1.5 meters per second (3.5 miles per hour) from east/southeast (110°), varying between east (080°) and southeast (140°).
 
The temperature was 11 °C (52 °F), with a dew-point at 11 °C (52 °F).
The atmospheric pressure was 1008 hPa (29.77 inHg).
The relative humidity was 100.0%.
 
The overall visibility was greater than 10 kilometers (6.2 miles).
 
Currently showers of light rain.

 
 
 
 

Country :   A   B   C   D   E   F   G   H   I   J   K   L   M   N   O   P   Q   R   S   T   U   V   W   Y   Z

 

Site Info  |  Disclaimer  |  Credits  |  Privacy
Contact us  |  Add to favorites
© 2013-2019 METARs - All rights reserved